createdAt,value
2023-03-06T00:00:38.750Z,1.416
2023-03-06T00:01:39.345Z,1.434
2023-03-06T00:02:38.917Z,1.434
2023-03-06T00:03:39.624Z,1.474
2023-03-06T00:04:39.445Z,1.530
2023-03-06T00:05:38.998Z,1.530
2023-03-06T00:06:39.152Z,1.498
2023-03-06T00:07:38.645Z,1.426
2023-03-06T00:08:39.227Z,1.456
2023-03-06T00:09:38.742Z,1.501
2023-03-06T00:10:39.285Z,1.520
2023-03-06T00:11:38.812Z,1.528
2023-03-06T00:12:39.323Z,1.555
2023-03-06T00:13:38.857Z,1.522
2023-03-06T00:14:39.298Z,1.480
2023-03-06T00:15:38.808Z,1.530
2023-03-06T00:16:39.425Z,1.517
2023-03-06T00:17:38.863Z,1.517
2023-03-06T00:18:39.417Z,1.501
2023-03-06T00:19:38.884Z,1.581
2023-03-06T00:20:39.432Z,1.490
2023-03-06T00:21:39.015Z,1.504
2023-03-06T00:22:39.423Z,1.488
2023-03-06T00:23:38.936Z,1.517
2023-03-06T00:24:39.416Z,1.477
2023-03-06T00:25:38.984Z,1.493
2023-03-06T00:26:39.547Z,1.477
2023-03-06T00:27:39.284Z,1.442
2023-03-06T00:28:39.462Z,1.413
2023-03-06T00:29:38.985Z,1.426
2023-03-06T00:30:39.497Z,1.472
2023-03-06T00:31:39.095Z,1.437
2023-03-06T00:32:39.613Z,1.442
2023-03-06T00:33:39.173Z,1.490
2023-03-06T00:34:38.698Z,1.426
2023-03-06T00:35:39.330Z,1.445
2023-03-06T00:36:39.105Z,1.517
2023-03-06T00:37:39.560Z,1.437
2023-03-06T00:38:39.073Z,1.437
2023-03-06T00:39:38.637Z,1.442
2023-03-06T00:40:39.232Z,1.432
2023-03-06T00:41:38.852Z,1.434
2023-03-06T00:42:39.328Z,1.381
2023-03-06T00:43:38.872Z,1.421
2023-03-06T00:44:39.443Z,1.429
2023-03-06T00:45:38.977Z,1.482
2023-03-06T00:46:38.760Z,1.514
2023-03-06T00:47:39.317Z,1.501
2023-03-06T00:48:38.913Z,1.472
2023-03-06T00:49:39.419Z,1.453
2023-03-06T00:50:38.918Z,1.461
2023-03-06T00:51:39.387Z,1.426
2023-03-06T00:52:38.932Z,1.378
2023-03-06T00:53:39.417Z,1.426
2023-03-06T00:54:38.893Z,1.400
2023-03-06T00:55:39.400Z,1.445
2023-03-06T00:56:38.982Z,1.400
2023-03-06T00:57:39.441Z,1.389
2023-03-06T00:58:39.045Z,1.426
2023-03-06T00:59:39.578Z,1.453
2023-03-06T01:00:39.241Z,1.426
2023-03-06T01:01:38.917Z,1.472
2023-03-06T01:02:38.693Z,1.504
2023-03-06T01:03:39.193Z,1.448
2023-03-06T01:04:38.937Z,1.418
2023-03-06T01:05:39.474Z,1.429
2023-03-06T01:06:39.053Z,1.424
2023-03-06T01:07:39.560Z,1.400
2023-03-06T01:08:39.194Z,1.445
2023-03-06T01:09:38.721Z,1.458
2023-03-06T01:10:39.312Z,1.445
2023-03-06T01:11:38.904Z,1.362
2023-03-06T01:12:41.100Z,1.378
2023-03-06T01:13:38.681Z,1.352
2023-03-06T01:14:39.288Z,1.410
2023-03-06T01:15:38.917Z,1.386
2023-03-06T01:16:39.788Z,1.389
2023-03-06T01:17:39.377Z,1.389
2023-03-06T01:18:39.049Z,1.378
2023-03-06T01:19:39.593Z,1.368
2023-03-06T01:20:39.118Z,1.378
2023-03-06T01:21:38.758Z,1.376
2023-03-06T01:22:39.515Z,1.322
2023-03-06T01:23:39.063Z,1.309
2023-03-06T01:24:38.535Z,1.317
2023-03-06T01:25:39.006Z,1.290
2023-03-06T01:26:39.544Z,1.290
2023-03-06T01:27:39.041Z,1.287
2023-03-06T01:28:38.597Z,1.306
2023-03-06T01:29:39.115Z,1.271
2023-03-06T01:30:38.621Z,1.295
2023-03-06T01:31:39.139Z,1.287
2023-03-06T01:32:39.037Z,1.261
2023-03-06T01:33:38.716Z,1.277
2023-03-06T01:34:39.180Z,1.277
2023-03-06T01:35:38.787Z,1.285
2023-03-06T01:36:39.419Z,1.298
2023-03-06T01:37:38.887Z,1.357
2023-03-06T01:38:39.381Z,1.368
2023-03-06T01:39:38.896Z,1.330
2023-03-06T01:40:39.440Z,1.304
2023-03-06T01:41:39.053Z,1.322
2023-03-06T01:42:38.607Z,1.328
2023-03-06T01:43:39.229Z,1.314
2023-03-06T01:44:38.750Z,1.312
2023-03-06T01:45:39.318Z,1.360
2023-03-06T01:46:38.992Z,1.328
2023-03-06T01:47:39.545Z,1.336
2023-03-06T01:48:39.124Z,1.285
2023-03-06T01:49:38.615Z,1.314
2023-03-06T01:50:39.144Z,1.279
2023-03-06T01:51:38.705Z,1.325
2023-03-06T01:52:39.188Z,1.336
2023-03-06T01:53:38.668Z,1.287
2023-03-06T01:54:39.112Z,1.250
2023-03-06T01:55:38.623Z,1.221
2023-03-06T01:56:39.128Z,1.239
2023-03-06T01:57:38.723Z,1.304
2023-03-06T01:58:39.439Z,1.229
2023-03-06T01:59:38.972Z,1.223
2023-03-06T02:00:39.475Z,1.245
2023-03-06T02:01:39.084Z,1.258
2023-03-06T02:02:38.900Z,1.210
2023-03-06T02:03:39.439Z,1.266
2023-03-06T02:04:39.003Z,1.279
2023-03-06T02:05:39.555Z,1.263
2023-03-06T02:06:39.229Z,1.242
2023-03-06T02:07:38.771Z,1.250
2023-03-06T02:08:39.228Z,1.237
2023-03-06T02:09:38.862Z,1.234
2023-03-06T02:10:39.425Z,1.279
2023-03-06T02:11:39.070Z,1.261
2023-03-06T02:12:38.881Z,1.202
2023-03-06T02:13:39.446Z,1.239
2023-03-06T02:14:39.014Z,1.239
2023-03-06T02:15:39.521Z,1.247
2023-03-06T02:16:39.067Z,1.266
2023-03-06T02:17:38.820Z,1.223
2023-03-06T02:18:39.305Z,1.213
2023-03-06T02:19:38.801Z,1.266
2023-03-06T02:20:39.428Z,1.181
2023-03-06T02:21:39.127Z,1.242
2023-03-06T02:22:38.736Z,1.189
2023-03-06T02:23:39.218Z,1.197
2023-03-06T02:24:39.035Z,1.242
2023-03-06T02:25:38.693Z,1.253
2023-03-06T02:26:39.252Z,1.237
2023-03-06T02:27:38.829Z,1.149
2023-03-06T02:28:39.488Z,1.242
2023-03-06T02:29:38.949Z,1.223
2023-03-06T02:30:39.432Z,1.226
2023-03-06T02:31:39.384Z,1.223
2023-03-06T02:32:39.037Z,1.191
2023-03-06T02:33:38.769Z,1.223
2023-03-06T02:34:39.315Z,1.197
2023-03-06T02:35:39.176Z,1.178
2023-03-06T02:36:38.933Z,1.213
2023-03-06T02:37:39.426Z,1.218
2023-03-06T02:38:39.033Z,1.223
2023-03-06T02:39:38.652Z,1.213
2023-03-06T02:40:39.309Z,1.181
2023-03-06T02:41:38.952Z,1.167
2023-03-06T02:42:39.497Z,1.162
2023-03-06T02:43:39.322Z,1.197
2023-03-06T02:44:38.905Z,1.205
2023-03-06T02:45:39.609Z,1.178
2023-03-06T02:46:39.300Z,1.194
2023-03-06T02:47:38.837Z,1.229
2023-03-06T02:48:39.385Z,1.263
2023-03-06T02:49:38.913Z,1.213
2023-03-06T02:50:38.596Z,1.215
2023-03-06T02:51:39.155Z,1.229
2023-03-06T02:52:38.736Z,1.207
2023-03-06T02:53:39.359Z,1.229
2023-03-06T02:54:38.924Z,1.250
2023-03-06T02:55:38.634Z,1.279
2023-03-06T02:56:39.160Z,1.218
2023-03-06T02:57:38.700Z,1.266
2023-03-06T02:58:39.275Z,1.197
2023-03-06T02:59:38.853Z,1.202
2023-03-06T03:00:40.194Z,1.218
2023-03-06T03:01:38.865Z,1.242
2023-03-06T03:02:38.555Z,1.258
2023-03-06T03:03:39.340Z,1.239
2023-03-06T03:04:39.024Z,1.253
2023-03-06T03:05:38.927Z,1.242
2023-03-06T03:06:39.819Z,1.215
2023-03-06T03:07:39.357Z,1.197
2023-03-06T03:08:39.028Z,1.167
2023-03-06T03:09:38.620Z,1.175
2023-03-06T03:10:39.214Z,1.087
2023-03-06T03:11:39.158Z,1.090
2023-03-06T03:12:38.852Z,1.101
2023-03-06T03:13:39.365Z,1.095
2023-03-06T03:14:38.869Z,1.101
2023-03-06T03:15:39.486Z,1.162
2023-03-06T03:16:39.340Z,1.165
2023-03-06T03:17:39.036Z,1.175
2023-03-06T03:18:39.540Z,1.149
2023-03-06T03:19:39.092Z,1.149
2023-03-06T03:20:38.724Z,1.111
2023-03-06T03:21:39.244Z,1.162
2023-03-06T03:22:38.865Z,1.082
2023-03-06T03:23:38.617Z,1.111
2023-03-06T03:24:39.332Z,1.103
2023-03-06T03:25:39.103Z,1.050
2023-03-06T03:26:39.572Z,1.119
2023-03-06T03:27:39.264Z,1.079
2023-03-06T03:28:38.731Z,1.023
2023-03-06T03:29:39.213Z,1.047
2023-03-06T03:30:38.742Z,1.087
2023-03-06T03:31:39.410Z,1.074
2023-03-06T03:32:39.024Z,1.074
2023-03-06T03:33:39.553Z,1.058
2023-03-06T03:34:39.065Z,1.090
2023-03-06T03:35:39.649Z,1.071
2023-03-06T03:36:39.293Z,1.101
2023-03-06T03:37:38.806Z,1.090
2023-03-06T03:38:39.361Z,1.085
2023-03-06T03:39:38.872Z,1.069
2023-03-06T03:40:39.448Z,1.149
2023-03-06T03:41:39.137Z,1.109
2023-03-06T03:42:39.093Z,1.151
2023-03-06T03:43:38.665Z,1.106
2023-03-06T03:44:39.213Z,1.077
2023-03-06T03:45:38.701Z,1.071
2023-03-06T03:46:39.393Z,1.061
2023-03-06T03:47:39.130Z,1.058
2023-03-06T03:48:38.668Z,1.109
2023-03-06T03:49:39.228Z,1.047
2023-03-06T03:50:38.768Z,1.093
2023-03-06T03:51:39.192Z,1.207
2023-03-06T03:52:38.679Z,1.133
2023-03-06T03:53:39.227Z,1.165
2023-03-06T03:54:38.744Z,1.058
2023-03-06T03:55:39.231Z,1.061
2023-03-06T03:56:38.676Z,1.047
2023-03-06T03:57:39.269Z,1.047
2023-03-06T03:58:38.822Z,1.052
2023-03-06T03:59:39.456Z,1.047
2023-03-06T04:00:39.224Z,1.058
2023-03-06T04:01:39.613Z,1.071
2023-03-06T04:02:39.597Z,1.087
2023-03-06T04:03:39.173Z,1.122
2023-03-06T04:04:38.909Z,1.044
2023-03-06T04:05:38.590Z,1.023
2023-03-06T04:06:39.201Z,1.039
2023-03-06T04:07:38.752Z,1.015
2023-03-06T04:08:39.257Z,1.012
2023-03-06T04:09:38.843Z,0.994
2023-03-06T04:10:39.344Z,1.002
2023-03-06T04:11:38.868Z,1.010
2023-03-06T04:12:39.444Z,1.111
2023-03-06T04:13:38.984Z,1.095
2023-03-06T04:14:38.621Z,1.079
2023-03-06T04:15:39.172Z,1.093
2023-03-06T04:16:43.685Z,1.052
2023-03-06T04:17:41.308Z,1.047
2023-03-06T04:18:39.002Z,1.058
2023-03-06T04:19:39.500Z,1.047
2023-03-06T04:20:39.212Z,1.074
2023-03-06T04:21:38.929Z,1.061
2023-03-06T04:22:39.564Z,1.002
2023-03-06T04:23:39.120Z,0.988
2023-03-06T04:24:38.759Z,1.012
2023-03-06T04:25:39.249Z,0.991
2023-03-06T04:26:38.811Z,1.002
2023-03-06T04:27:39.474Z,0.994
2023-03-06T04:28:39.032Z,1.034
2023-03-06T04:29:39.576Z,0.983
2023-03-06T04:30:39.216Z,1.018
2023-03-06T04:31:39.033Z,0.994
2023-03-06T04:32:39.362Z,0.983
2023-03-06T04:33:38.953Z,0.946
2023-03-06T04:34:39.417Z,0.994
2023-03-06T04:35:39.095Z,0.975
2023-03-06T04:36:38.837Z,0.999
2023-03-06T04:37:39.321Z,1.010
2023-03-06T04:38:39.022Z,0.972
2023-03-06T04:39:38.741Z,0.972
2023-03-06T04:40:39.597Z,0.983
2023-03-06T04:41:39.107Z,0.996
2023-03-06T04:42:38.997Z,1.002
2023-03-06T04:43:39.502Z,0.983
2023-03-06T04:44:39.063Z,1.061
2023-03-06T04:45:39.657Z,0.975
2023-03-06T04:46:39.552Z,0.948
2023-03-06T04:47:39.223Z,1.020
2023-03-06T04:48:38.816Z,1.028
2023-03-06T04:49:39.316Z,1.036
2023-03-06T04:50:38.856Z,1.018
2023-03-06T04:51:39.502Z,1.004
2023-03-06T04:52:39.156Z,1.010
2023-03-06T04:53:38.668Z,0.994
2023-03-06T04:54:39.206Z,1.074
2023-03-06T04:55:38.723Z,1.023
2023-03-06T04:56:39.244Z,0.972
2023-03-06T04:57:38.852Z,0.972
2023-03-06T04:58:39.445Z,0.956
2023-03-06T04:59:39.317Z,0.908
2023-03-06T05:00:38.890Z,0.935
2023-03-06T05:01:38.622Z,0.964
2023-03-06T05:02:39.585Z,0.996
2023-03-06T05:03:39.130Z,0.994
2023-03-06T05:04:38.738Z,1.023
2023-03-06T05:05:39.253Z,0.996
2023-03-06T05:06:38.877Z,0.959
2023-03-06T05:07:39.910Z,0.930
2023-03-06T05:08:39.560Z,0.964
2023-03-06T05:09:39.266Z,0.994
2023-03-06T05:10:38.755Z,0.975
2023-03-06T05:11:39.272Z,0.935
2023-03-06T05:12:38.782Z,0.940
2023-03-06T05:13:39.303Z,0.908
2023-03-06T05:14:38.827Z,0.972
2023-03-06T05:15:39.308Z,0.986
2023-03-06T05:16:39.050Z,0.972
2023-03-06T05:17:38.733Z,0.994
2023-03-06T05:18:39.232Z,0.967
2023-03-06T05:19:38.995Z,0.962
2023-03-06T05:20:39.513Z,0.946
2023-03-06T05:21:39.132Z,0.948
2023-03-06T05:22:38.632Z,0.959
2023-03-06T05:23:39.080Z,0.908
2023-03-06T05:24:38.687Z,0.900
2023-03-06T05:25:39.347Z,0.911
2023-03-06T05:26:39.044Z,0.943
2023-03-06T05:27:39.722Z,0.924
2023-03-06T05:28:39.269Z,0.932
2023-03-06T05:29:38.873Z,0.908
2023-03-06T05:30:39.408Z,0.927
2023-03-06T05:31:38.709Z,0.908
2023-03-06T05:32:39.750Z,0.930
2023-03-06T05:33:39.471Z,0.935
2023-03-06T05:34:39.037Z,0.924
2023-03-06T05:35:39.656Z,0.911
2023-03-06T05:36:39.440Z,0.892
2023-03-06T05:37:39.423Z,0.930
2023-03-06T05:38:39.436Z,0.935
2023-03-06T05:39:39.020Z,0.962
2023-03-06T05:40:39.597Z,1.015
2023-03-06T05:41:39.192Z,1.023
2023-03-06T05:42:38.727Z,0.986
2023-03-06T05:43:39.347Z,0.983
2023-03-06T05:44:38.958Z,1.028
2023-03-06T05:45:39.488Z,0.996
2023-03-06T05:46:39.363Z,0.996
2023-03-06T05:47:38.841Z,1.031
2023-03-06T05:48:39.338Z,1.044
2023-03-06T05:49:39.172Z,1.010
2023-03-06T05:50:38.608Z,1.028
2023-03-06T05:51:39.076Z,1.069
2023-03-06T05:52:39.573Z,1.063
2023-03-06T05:53:39.437Z,1.036
2023-03-06T05:54:38.963Z,1.020
2023-03-06T05:55:39.693Z,0.996
2023-03-06T05:56:40.774Z,0.999
2023-03-06T05:57:39.526Z,1.004
2023-03-06T05:58:39.115Z,0.983
2023-03-06T05:59:38.619Z,1.020
2023-03-06T06:00:39.134Z,0.972
2023-03-06T06:01:38.766Z,1.007
2023-03-06T06:02:39.647Z,1.007
2023-03-06T06:03:39.440Z,1.015
2023-03-06T06:04:38.974Z,1.002
2023-03-06T06:05:38.669Z,1.012
2023-03-06T06:06:39.257Z,1.023
2023-03-06T06:07:38.823Z,1.010
2023-03-06T06:08:39.499Z,0.975
2023-03-06T06:09:38.999Z,0.994
2023-03-06T06:10:39.476Z,1.012
2023-03-06T06:11:39.009Z,0.994
2023-03-06T06:12:39.490Z,0.983
2023-03-06T06:13:39.008Z,1.031
2023-03-06T06:14:38.608Z,0.994
2023-03-06T06:15:39.202Z,1.034
2023-03-06T06:16:38.941Z,0.994
2023-03-06T06:17:39.488Z,1.010
2023-03-06T06:18:41.098Z,1.047
2023-03-06T06:19:38.964Z,1.036
2023-03-06T06:20:39.544Z,1.052
2023-03-06T06:21:39.576Z,1.087
2023-03-06T06:22:39.111Z,1.077
2023-03-06T06:23:38.817Z,1.069
2023-03-06T06:24:39.441Z,1.087
2023-03-06T06:25:38.997Z,1.082
2023-03-06T06:26:39.480Z,1.119
2023-03-06T06:27:39.066Z,1.159
2023-03-06T06:28:38.699Z,1.162
2023-03-06T06:29:38.803Z,1.186
2023-03-06T06:30:39.356Z,1.183
2023-03-06T06:31:39.036Z,1.186
2023-03-06T06:32:39.616Z,1.250
2023-03-06T06:33:39.146Z,1.223
2023-03-06T06:34:38.723Z,1.255
2023-03-06T06:35:39.318Z,1.285
2023-03-06T06:36:39.039Z,1.250
2023-03-06T06:37:39.452Z,1.255
2023-03-06T06:38:39.020Z,1.287
2023-03-06T06:39:39.703Z,1.325
2023-03-06T06:40:39.248Z,1.437
2023-03-06T06:42:48.447Z,1.402
2023-03-06T06:43:42.973Z,1.424
2023-03-06T06:44:42.673Z,1.432
2023-03-06T06:45:43.295Z,1.445
2023-03-06T06:47:47.607Z,1.541
2023-03-06T06:48:47.312Z,1.589
2023-03-06T06:49:47.084Z,1.528
2023-03-06T06:50:46.597Z,1.536
2023-03-06T06:51:47.153Z,1.517
2023-03-06T06:52:46.907Z,1.530
2023-03-06T06:53:47.424Z,1.538
2023-03-06T06:54:46.982Z,1.544
2023-03-06T06:55:47.496Z,1.581
2023-03-06T06:56:47.033Z,1.581
2023-03-06T06:57:47.489Z,1.557
2023-03-06T06:58:47.045Z,1.538
2023-03-06T07:00:47.618Z,1.571
2023-03-06T07:01:47.469Z,1.544
2023-03-06T07:02:47.046Z,1.592
2023-03-06T07:03:46.616Z,1.565
2023-03-06T07:05:02.307Z,1.632
2023-03-06T07:06:46.959Z,1.627
2023-03-06T07:07:47.517Z,1.624
2023-03-06T07:08:47.082Z,1.627
2023-03-06T07:09:46.612Z,1.659
2023-03-06T07:10:47.219Z,1.621
2023-03-06T07:11:46.804Z,1.555
2023-03-06T07:12:47.361Z,1.685
2023-03-06T07:13:46.881Z,1.592
2023-03-06T07:14:47.455Z,1.696
2023-03-06T07:15:47.118Z,1.715
2023-03-06T07:16:46.720Z,1.693
2023-03-06T07:17:49.535Z,1.709
2023-03-06T07:18:47.608Z,1.667
2023-03-06T07:19:47.204Z,1.669
2023-03-06T07:20:46.733Z,1.651
2023-03-06T07:21:47.288Z,1.731
2023-03-06T07:22:51.989Z,1.715
2023-03-06T07:23:46.957Z,1.688
2023-03-06T07:24:47.656Z,1.806
2023-03-06T07:25:47.193Z,1.787
2023-03-06T07:26:46.649Z,1.632
2023-03-06T07:27:53.218Z,1.672
2023-03-06T07:28:53.023Z,1.728
2023-03-06T07:29:47.570Z,1.765
2023-03-06T07:30:47.258Z,1.733
2023-03-06T07:31:46.840Z,1.757
2023-03-06T07:32:47.557Z,1.830
2023-03-06T07:33:47.168Z,1.896
2023-03-06T07:34:47.409Z,1.872
2023-03-06T07:36:50.345Z,1.923
2023-03-06T07:37:49.932Z,1.902
2023-03-06T07:38:50.523Z,2.003
2023-03-06T07:39:50.112Z,1.971
2023-03-06T07:40:49.632Z,2.038
2023-03-06T07:41:50.256Z,2.046
2023-03-06T07:42:49.804Z,1.992
2023-03-06T07:44:49.826Z,2.190
2023-03-06T07:45:50.426Z,2.062
2023-03-06T07:46:50.281Z,2.211
2023-03-06T07:47:50.049Z,2.177
2023-03-06T07:48:50.080Z,2.214
2023-03-06T07:49:49.644Z,2.158
2023-03-06T07:50:50.284Z,2.294
2023-03-06T07:51:49.768Z,2.273
2023-03-06T07:52:50.288Z,2.369
2023-03-06T07:53:49.717Z,2.286
2023-03-06T07:54:50.254Z,2.406
2023-03-06T07:55:49.881Z,2.398
2023-03-06T07:56:50.322Z,2.529
2023-03-06T07:57:49.885Z,2.564
2023-03-06T07:58:50.527Z,2.671
2023-03-06T07:59:50.148Z,2.521
2023-03-06T08:00:49.820Z,2.649
2023-03-06T08:01:50.383Z,2.502
2023-03-06T08:02:49.951Z,2.398
2023-03-06T08:03:49.751Z,2.612
2023-03-06T08:04:50.490Z,2.607
2023-03-06T08:05:50.065Z,2.665
2023-03-06T08:06:50.521Z,2.815
2023-03-06T08:07:50.065Z,2.844
2023-03-06T08:08:49.572Z,2.983
2023-03-06T08:09:50.071Z,2.964
2023-03-06T08:10:49.674Z,3.106
2023-03-06T08:11:50.281Z,3.197
2023-03-06T08:12:49.917Z,3.037
2023-03-06T08:13:50.457Z,3.141
2023-03-06T08:14:50.019Z,2.898
2023-03-06T08:15:50.564Z,2.980
2023-03-06T08:16:50.656Z,2.860
2023-03-06T08:17:50.186Z,2.938
2023-03-06T08:18:49.849Z,3.135
2023-03-06T08:19:50.388Z,3.381
2023-03-06T08:20:49.956Z,3.333
2023-03-06T08:21:49.655Z,3.250
2023-03-06T08:22:50.206Z,3.477
2023-03-06T08:23:49.802Z,3.739
2023-03-06T08:24:50.036Z,3.712
2023-03-06T08:25:49.766Z,3.536
2023-03-06T08:26:50.309Z,3.349
2023-03-06T08:27:49.824Z,3.667
2023-03-06T08:28:49.976Z,3.731
2023-03-06T08:29:50.510Z,3.776
2023-03-06T08:30:50.005Z,3.667
2023-03-06T08:31:50.753Z,3.790
2023-03-06T08:32:49.681Z,3.742
2023-03-06T08:33:50.193Z,3.819
2023-03-06T08:34:49.825Z,3.715
2023-03-06T08:35:50.633Z,3.621
2023-03-06T08:36:50.290Z,3.688
2023-03-06T08:37:49.896Z,3.685
2023-03-06T08:38:50.396Z,3.803
2023-03-06T08:39:49.924Z,3.680
2023-03-06T08:40:49.686Z,3.717
2023-03-06T08:41:50.231Z,3.581
2023-03-06T08:42:49.794Z,3.584
2023-03-06T08:43:50.322Z,3.563
2023-03-06T08:44:49.776Z,3.766
2023-03-06T08:45:50.514Z,3.739
2023-03-06T08:46:50.159Z,3.888
2023-03-06T08:47:49.679Z,3.902
2023-03-06T08:48:50.225Z,3.902
2023-03-06T08:49:49.833Z,3.750
2023-03-06T08:50:50.437Z,3.720
2023-03-06T08:51:49.974Z,3.635
2023-03-06T08:52:50.525Z,3.613
2023-03-06T08:53:55.002Z,3.744
2023-03-06T08:54:49.785Z,3.720
2023-03-06T08:55:50.313Z,3.675
2023-03-06T08:56:49.890Z,3.709
2023-03-06T08:57:50.433Z,3.418
2023-03-06T08:58:49.982Z,3.723
2023-03-06T08:59:49.576Z,3.531
2023-03-06T09:00:50.314Z,3.531
2023-03-06T09:01:50.157Z,3.491
2023-03-06T09:02:49.996Z,3.402
2023-03-06T09:03:50.586Z,3.445
2023-03-06T09:04:50.219Z,3.461
2023-03-06T09:05:49.784Z,3.456
2023-03-06T09:06:50.305Z,3.531
2023-03-06T09:07:50.548Z,3.517
2023-03-06T09:08:50.077Z,3.469
2023-03-06T09:09:49.656Z,3.600
2023-03-06T09:10:50.202Z,3.704
2023-03-06T09:11:49.888Z,3.501
2023-03-06T09:12:55.490Z,3.624
2023-03-06T09:13:50.048Z,3.766
2023-03-06T09:14:49.734Z,3.806
2023-03-06T09:15:50.267Z,3.579
2023-03-06T09:16:50.019Z,3.688
2023-03-06T09:17:49.900Z,3.616
2023-03-06T09:18:50.517Z,3.648
2023-03-06T09:19:50.130Z,3.589
2023-03-06T09:20:49.709Z,3.402
2023-03-06T09:21:50.199Z,3.314
2023-03-06T09:22:49.809Z,3.317
2023-03-06T09:23:50.365Z,3.194
2023-03-06T09:24:49.997Z,3.264
2023-03-06T09:25:50.565Z,3.365
2023-03-06T09:26:55.065Z,3.322
2023-03-06T09:27:55.619Z,3.464
2023-03-06T09:28:50.030Z,3.581
2023-03-06T09:29:49.617Z,3.472
2023-03-06T09:30:50.279Z,3.426
2023-03-06T09:31:50.187Z,3.421
2023-03-06T09:32:49.945Z,3.378
2023-03-06T09:33:50.577Z,3.370
2023-03-06T09:34:50.147Z,3.325
2023-03-06T09:35:49.781Z,3.333
2023-03-06T09:36:56.306Z,3.288
2023-03-06T09:37:49.801Z,3.237
2023-03-06T09:38:50.376Z,3.199
2023-03-06T09:39:50.043Z,3.231
2023-03-06T09:40:49.603Z,3.424
2023-03-06T09:41:50.321Z,3.464
2023-03-06T09:42:49.852Z,3.627
2023-03-06T09:43:50.444Z,3.402
2023-03-06T09:44:50.049Z,3.605
2023-03-06T09:45:49.639Z,3.669
2023-03-06T09:46:49.632Z,3.589
2023-03-06T09:47:50.257Z,3.683
2023-03-06T09:48:49.740Z,3.790
2023-03-06T09:49:50.337Z,3.669
2023-03-06T09:50:49.864Z,3.480
2023-03-06T09:51:50.464Z,3.555
2023-03-06T09:52:50.070Z,3.469
2023-03-06T09:53:49.631Z,3.456
2023-03-06T09:54:50.202Z,3.362
2023-03-06T09:55:49.777Z,3.386
2023-03-06T09:56:50.443Z,3.667
2023-03-06T09:57:51.178Z,3.744
2023-03-06T09:58:50.159Z,3.712
2023-03-06T09:59:49.680Z,3.525
2023-03-06T10:00:50.307Z,3.712
2023-03-06T10:01:49.932Z,3.704
2023-03-06T10:02:49.880Z,3.589
2023-03-06T10:03:49.966Z,3.445
2023-03-06T10:04:49.763Z,3.413
2023-03-06T10:05:49.586Z,3.424
2023-03-06T10:06:50.124Z,3.600
2023-03-06T10:07:49.672Z,3.491
2023-03-06T10:08:50.149Z,3.464
2023-03-06T10:09:49.636Z,3.509
2023-03-06T10:10:50.311Z,3.410
2023-03-06T10:11:49.853Z,3.437
2023-03-06T10:12:50.402Z,3.448
2023-03-06T10:13:49.967Z,3.269
2023-03-06T10:14:50.484Z,3.352
2023-03-06T10:15:50.213Z,3.258
2023-03-06T10:16:49.986Z,3.282
2023-03-06T10:17:50.513Z,3.258
2023-03-06T10:18:50.077Z,3.141
2023-03-06T10:19:50.653Z,3.381
2023-03-06T10:20:50.301Z,3.194
2023-03-06T10:23:00.528Z,3.234
2023-03-06T10:23:50.090Z,3.199
2023-03-06T10:24:49.669Z,3.098
2023-03-06T10:25:50.263Z,3.194
2023-03-06T10:26:50.123Z,3.119
2023-03-06T10:27:49.977Z,3.146
2023-03-06T10:28:53.034Z,3.154
2023-03-06T10:30:01.488Z,3.186
2023-03-06T10:30:50.089Z,3.413
2023-03-06T10:31:49.880Z,3.362
2023-03-06T10:32:55.417Z,3.346
2023-03-06T10:33:50.383Z,3.416
2023-03-06T10:34:50.020Z,3.333
2023-03-06T10:35:50.736Z,3.378
2023-03-06T10:36:50.395Z,3.248
2023-03-06T10:37:50.294Z,3.314
2023-03-06T10:38:50.121Z,3.386
2023-03-06T10:39:49.668Z,3.445
2023-03-06T10:40:50.370Z,3.461
2023-03-06T10:41:50.088Z,3.632
2023-03-06T10:42:56.190Z,3.581
2023-03-06T10:43:53.589Z,3.466
2023-03-06T10:44:50.124Z,3.477
2023-03-06T10:45:54.641Z,3.424
2023-03-06T10:46:50.443Z,3.573
2023-03-06T10:47:49.978Z,3.643
2023-03-06T10:48:49.677Z,3.517
2023-03-06T10:49:50.249Z,3.517
2023-03-06T10:50:50.018Z,3.552
2023-03-06T10:51:50.505Z,3.539
2023-03-06T10:52:49.988Z,3.528
2023-03-06T10:53:50.549Z,3.362
2023-03-06T10:54:50.102Z,3.568
2023-03-06T10:55:49.801Z,3.539
2023-03-06T10:56:50.494Z,3.499
2023-03-06T10:57:50.036Z,3.629
2023-03-06T10:58:49.633Z,3.776
2023-03-06T10:59:50.304Z,3.723
2023-03-06T11:00:49.935Z,3.734
2023-03-06T11:01:50.650Z,3.707
2023-03-06T11:02:50.295Z,3.800
2023-03-06T11:03:49.865Z,3.787
2023-03-06T11:04:50.513Z,3.776
2023-03-06T11:05:50.244Z,3.824
2023-03-06T11:06:49.576Z,3.942
2023-03-06T11:07:50.124Z,3.952
2023-03-06T11:08:49.883Z,3.982
2023-03-06T11:09:49.604Z,4.025
2023-03-06T11:10:50.264Z,3.990
2023-03-06T11:11:54.896Z,3.790
2023-03-06T11:12:50.481Z,4.083
2023-03-06T11:13:50.045Z,4.089
2023-03-06T11:14:49.652Z,4.059
2023-03-06T11:15:50.205Z,4.179
2023-03-06T11:16:50.153Z,4.150
2023-03-06T11:17:49.742Z,4.340
2023-03-06T11:18:50.253Z,4.102
2023-03-06T11:19:49.857Z,4.129
2023-03-06T11:20:55.302Z,4.171
2023-03-06T11:21:49.885Z,4.289
2023-03-06T11:22:50.848Z,4.147
2023-03-06T11:23:50.446Z,4.310
2023-03-06T11:24:49.961Z,4.310
2023-03-06T11:25:50.521Z,4.209
2023-03-06T11:26:51.092Z,4.054
2023-03-06T11:27:49.701Z,4.268
2023-03-06T11:28:50.276Z,4.073
2023-03-06T11:29:52.848Z,4.286
2023-03-06T11:30:50.376Z,4.289
2023-03-06T11:31:50.025Z,4.521
2023-03-06T11:32:49.641Z,4.644
2023-03-06T11:33:50.144Z,4.532
2023-03-06T11:34:50.627Z,4.652
2023-03-06T11:35:50.324Z,4.463
2023-03-06T11:36:50.051Z,4.780
2023-03-06T11:37:49.623Z,4.730
2023-03-06T11:38:50.162Z,4.924
2023-03-06T11:39:49.732Z,4.935
2023-03-06T11:40:50.519Z,5.037
2023-03-06T11:41:50.075Z,5.021
2023-03-06T11:42:49.586Z,4.959
2023-03-06T11:43:50.129Z,4.989
2023-03-06T11:44:49.681Z,4.647
2023-03-06T11:45:50.446Z,4.770
2023-03-06T11:46:50.086Z,4.631
2023-03-06T11:47:49.725Z,4.599
2023-03-06T11:48:50.289Z,4.703
2023-03-06T11:49:49.798Z,5.248
2023-03-06T11:50:50.507Z,5.090
2023-03-06T11:51:50.236Z,5.392
2023-03-06T11:52:49.856Z,5.461
2023-03-06T11:53:50.475Z,5.600
2023-03-06T11:54:50.094Z,5.362
2023-03-06T11:55:49.602Z,5.354
2023-03-06T11:56:50.343Z,5.266
2023-03-06T11:57:50.016Z,5.525
2023-03-06T11:58:49.829Z,5.763
2023-03-06T11:59:50.445Z,5.384
2023-03-06T12:00:50.364Z,5.549
2023-03-06T12:01:50.043Z,5.389
2023-03-06T12:02:49.751Z,5.408
2023-03-06T12:03:50.444Z,5.282
2023-03-06T12:04:49.989Z,5.143
2023-03-06T12:05:49.835Z,5.005
2023-03-06T12:06:50.447Z,4.978
2023-03-06T12:07:50.151Z,4.967
2023-03-06T12:08:49.663Z,4.655
2023-03-06T12:09:50.332Z,4.270
2023-03-06T12:10:51.385Z,4.321
2023-03-06T12:11:51.045Z,4.356
2023-03-06T12:12:50.669Z,4.473
2023-03-06T12:14:49.775Z,4.513
2023-03-06T12:15:50.356Z,4.473
2023-03-06T12:16:50.112Z,4.540
2023-03-06T12:17:49.889Z,4.868
2023-03-06T12:18:50.489Z,4.940
2023-03-06T12:19:50.043Z,5.208
2023-03-06T12:20:49.677Z,5.400
2023-03-06T12:21:50.459Z,5.282
2023-03-06T12:22:57.345Z,5.082
2023-03-06T12:23:50.585Z,5.389
2023-03-06T12:24:50.203Z,5.250
2023-03-06T12:25:49.756Z,5.149
2023-03-06T12:26:50.295Z,5.394
2023-03-06T12:27:49.927Z,5.202
2023-03-06T12:28:50.443Z,5.135
2023-03-06T12:29:49.976Z,5.173
2023-03-06T12:30:50.644Z,5.208
2023-03-06T12:31:50.275Z,5.002
2023-03-06T12:32:50.661Z,4.981
2023-03-06T12:33:50.207Z,5.039
2023-03-06T12:34:49.772Z,5.170
2023-03-06T12:35:49.968Z,5.221
2023-03-06T12:36:49.616Z,5.127
2023-03-06T12:37:50.209Z,4.997
2023-03-06T12:38:49.767Z,5.357
2023-03-06T12:39:50.414Z,5.357
2023-03-06T12:40:49.791Z,5.587
2023-03-06T12:41:50.930Z,5.694
2023-03-06T12:43:50.394Z,5.525
2023-03-06T12:44:50.157Z,5.640
2023-03-06T12:45:49.803Z,5.560
2023-03-06T12:46:49.756Z,5.544
2023-03-06T12:47:50.640Z,5.512
2023-03-06T12:48:50.213Z,5.336
2023-03-06T12:49:51.120Z,5.200
2023-03-06T12:50:49.674Z,5.397
2023-03-06T12:51:50.201Z,5.549
2023-03-06T12:52:50.011Z,5.338
2023-03-06T12:53:49.620Z,5.413
2023-03-06T12:54:50.306Z,5.322
2023-03-06T12:55:49.865Z,4.983
2023-03-06T12:56:50.419Z,5.114
2023-03-06T12:57:50.080Z,4.892
2023-03-06T12:58:49.592Z,5.130
2023-03-06T12:59:50.207Z,4.786
2023-03-06T13:00:52.566Z,4.940
2023-03-06T13:01:50.530Z,4.796